Airfield :
LOGIN :

Register | Disclaimer

   EN    FR    IT 

 










Legend :    VFR   Marginal VFR   IFR   Intensive IFR   Very Intensive IFR
Visi :
Ceiling :
>= 8 km
>= 3000ft
5 to 8 km
1000 to 3000 ft
1500m to 5 km
500 to 1000 ft
800 to 1500m
200 to 500 ft
< 800m
< 200 ft
Symbols :   Thunderstorms  Fog  Heavy snow  Heavy precipitations  Wind > 20 kt
SIGMETs :     Misc.  Thunderstorms  Icing  Turbulence  Mountain Waves  Volcanic Ashes






- Airport Elevation : 1046 ft
- IATA code : NUE


EDDN - Nuremberg

CURRENT METAR :
  • 181920Z 23009KT 9999 SCT011 BKN041 01/M00 Q1023 R28/29//95 NOSIG

EXPIRED METARs :
  • 181850Z 24008KT 9999 -SNRA FEW007 BKN009 01/00 Q1023 R28/29//95 BECMG SCT010 BKN040
  • 181820Z 23009KT 9999 -SNRA BKN010 BKN040 02/M00 Q1023 R28/29//95 BECMG SCT010 BKN040
  • 181750Z 22006KT 190V270 9999 -SNRA BKN015 BKN040 02/M01 Q1023 R28/29//95 TEMPO BKN014
  • 181720Z 22008KT 9999 SCT015 BKN040 02/M01 Q1023 R28/29//95 NOSIG
  • 181650Z 24006KT 9999 FEW013 BKN040 02/M01 Q1023 R28/29//95 NOSIG
  • 181620Z 22007KT 190V250 9999 SCT013 BKN045 02/M01 Q1023 R28/29//95 NOSIG

TAF TAF EDDN
Valid from the 18 at 18:00 until the 19 at 18:00 UTC


181700Z 1818/1918 23008KT 9999 FEW013 BKN035
PROB30
TEMPO 1818/1901 4500 -RASN BKN013
TEMPO 1905/1911 15007KT
BECMG 1910/1912 2500 -SN BKN008
BECMG 1914/1916 4500 -RADZ



MET'MAP, your aeronautical weather chart ! - Copyright ORBIFLY December 2007 - Disclaimer

ORBIFLY MET'MAP TEAM :

Programming & Development : Alexandra Zaïnal
Concept & original design : Baudouin d'Aumeries
Assistance for programming : Marc-Olivier Méhu
Technical & hardware support : Manuel Goepfert

Contact : metmap@orbifly.com




SOURCES & CREDITS :

   NOAA